Hovedside
METAR-TAF:

METAR-TAF

Lufthavner :

Barrow, Alaska, USA

breddegrad: 71-17-07N, lengdegrad: 156-45-57W, høyde over havet: 13 m

Gjeldene værobservasjon

Denne rapporten ble laget for 1 time og 14 minutter siden, klokken 21:53 UTC
Vind 9 kt fra Sør-sørøst
Temperatur 8°C
Luftfuktighet 76%
Trykk 1023 hPa
Sikt: 16.1 km
Spredte skyer i en høyde av 4800 ft

METAR: PABR 152153Z 16009KT 10SM SCT048 08/04 A3020

Tid: 15:07 (23:07 UTC)

Varsel

Denne rapporten ble laget for 5 timer og 47 minutter siden, klokken 17:20 UTC
Varsel gyldig fra 15. klokken 18 UTC til 16. klokken 18 UTC
Vind 5 kt fra Sør-sørøst
Sikt: 10 km
Brutte skyer i en høyde av 6000 ft

TAF: PABR 151720Z 1518/1618 15005KT P6SM BKN060

Værobservasjoner og værvarsel for over 4000 flyplasser (METAR- og TAF-rapporter).

Tilgjengelige stasjoner er representert av de røde og gule prikkene på kartet.

Hold musepekeren over prikken for å se navnet på stasjonen.

Klikk så for å se værobservasjoner og -varsler.

For å forandre kartet kan du klikke på den grønne knappen med svart kryss for å zoome inn, på den grønne knappen med strek for å zoome ut, eller på de grønne pilene for å se tilstøtende kart.


METAR-TAF: